CCA9847 ZULS-ZLYS
Flight info
| Callsign | CCA9847 |
|---|---|
| Flight time | 1h 12m |
| Altitude | 33100 |
| Route | LXA W522 IGELA Z3 YUS |
| Aircraft | A319/L-SABCDE1E2E3FGHIJ1J2J5J6M1M2RTUW/LB1U1V1 |
Departure
| Time | 2026-05-09 07:13 |
|---|---|
| Airport | Lhasa Gonggar International Airport (ZULS) |
Arrival
| Time | 2026-05-09 08:25 |
|---|---|
| Airport | Yushu Batang Airport (ZLYS) |
| Time | Latitude | Longitude | Altitude | Speed | Heading |
|---|---|---|---|---|---|
| 2026-05-09 06:53 | 29.29384 | 90.89403 | 11580 ft | 0 kts | 184° |
| 2026-05-09 07:04 | 29.29389 | 90.89404 | 11568 ft | 4 kts | 184° |
| 2026-05-09 07:04 | 29.29407 | 90.89405 | 11571 ft | 4 kts | 183° |
| 2026-05-09 07:05 | 29.29434 | 90.89407 | 11570 ft | 4 kts | 182° |
| 2026-05-09 07:05 | 29.29461 | 90.89408 | 11568 ft | 4 kts | 182° |
| 2026-05-09 07:05 | 29.29483 | 90.89409 | 11567 ft | 3 kts | 184° |
| 2026-05-09 07:05 | 29.29508 | 90.89416 | 11567 ft | 4 kts | 220° |
| 2026-05-09 07:06 | 29.29518 | 90.89437 | 11569 ft | 3 kts | 269° |
| 2026-05-09 07:06 | 29.29519 | 90.89463 | 11567 ft | 1 kts | 269° |
| 2026-05-09 07:07 | 29.29518 | 90.89453 | 11567 ft | 3 kts | 268° |
| 2026-05-09 07:08 | 29.29517 | 90.89425 | 11567 ft | 0 kts | 268° |
| 2026-05-09 07:09 | 29.29517 | 90.89422 | 11567 ft | 2 kts | 268° |
| 2026-05-09 07:09 | 29.29516 | 90.89387 | 11568 ft | 7 kts | 268° |
| 2026-05-09 07:09 | 29.29515 | 90.89316 | 11569 ft | 10 kts | 268° |
| 2026-05-09 07:09 | 29.29514 | 90.89233 | 11569 ft | 11 kts | 277° |
| 2026-05-09 07:10 | 29.29572 | 90.89195 | 11566 ft | 11 kts | 359° |
| 2026-05-09 07:10 | 29.29646 | 90.89195 | 11567 ft | 11 kts | 359° |
| 2026-05-09 07:10 | 29.29716 | 90.89194 | 11568 ft | 8 kts | 359° |
| 2026-05-09 07:10 | 29.29767 | 90.89198 | 11569 ft | 7 kts | 21° |
| 2026-05-09 07:11 | 29.29780 | 90.89248 | 11569 ft | 0 kts | 89° |
| 2026-05-09 07:11 | 29.29781 | 90.89327 | 11573 ft | 36 kts | 89° |
| 2026-05-09 07:12 | 29.29788 | 90.89870 | 11576 ft | 98 kts | 89° |
| 2026-05-09 07:12 | 29.29802 | 90.90862 | 11573 ft | 149 kts | 89° |
| 2026-05-09 07:12 | 29.29824 | 90.92218 | 11575 ft | 190 kts | 87° |
| 2026-05-09 07:12 | 29.29860 | 90.93756 | 12195 ft | 192 kts | 84° |
| 2026-05-09 07:13 | 29.29931 | 90.95285 | 13057 ft | 192 kts | 84° |
| 2026-05-09 07:13 | 29.30020 | 90.96865 | 13440 ft | 204 kts | 83° |
| 2026-05-09 07:13 | 29.30132 | 90.98539 | 13547 ft | 224 kts | 83° |
| 2026-05-09 07:13 | 29.30283 | 91.00410 | 13681 ft | 247 kts | 81° |
| 2026-05-09 07:14 | 29.30677 | 91.02428 | 14021 ft | 262 kts | 69° |
| 2026-05-09 07:14 | 29.31381 | 91.04365 | 14722 ft | 266 kts | 70° |
| 2026-05-09 07:14 | 29.31830 | 91.06436 | 15367 ft | 271 kts | 83° |
| 2026-05-09 07:14 | 29.31861 | 91.08604 | 16027 ft | 275 kts | 97° |
| 2026-05-09 07:15 | 29.31451 | 91.10751 | 16708 ft | 278 kts | 107° |
| 2026-05-09 07:15 | 29.30956 | 91.12908 | 17430 ft | 282 kts | 104° |
| 2026-05-09 07:15 | 29.30563 | 91.15121 | 18158 ft | 286 kts | 100° |
| 2026-05-09 07:15 | 29.30273 | 91.17452 | 18422 ft | 307 kts | 96° |
| 2026-05-09 07:16 | 29.30079 | 91.19977 | 18591 ft | 329 kts | 95° |
| 2026-05-09 07:16 | 29.29887 | 91.22640 | 19027 ft | 340 kts | 95° |
| 2026-05-09 07:16 | 29.29690 | 91.25357 | 19607 ft | 345 kts | 95° |
| 2026-05-09 07:16 | 29.29487 | 91.28109 | 20230 ft | 349 kts | 95° |
| 2026-05-09 07:17 | 29.29282 | 91.30889 | 20857 ft | 352 kts | 95° |
| 2026-05-09 07:17 | 29.29072 | 91.33696 | 21485 ft | 355 kts | 95° |
| 2026-05-09 07:17 | 29.28859 | 91.36530 | 22110 ft | 359 kts | 96° |
| 2026-05-09 07:17 | 29.28646 | 91.39392 | 22723 ft | 362 kts | 96° |
| 2026-05-09 07:18 | 29.28432 | 91.42282 | 23333 ft | 366 kts | 96° |
| 2026-05-09 07:18 | 29.28212 | 91.45204 | 23872 ft | 370 kts | 96° |
| 2026-05-09 07:18 | 29.27990 | 91.48152 | 24383 ft | 373 kts | 96° |
| 2026-05-09 07:18 | 29.27765 | 91.51131 | 24896 ft | 377 kts | 96° |
| 2026-05-09 07:19 | 29.27527 | 91.54134 | 25378 ft | 381 kts | 96° |
| 2026-05-09 07:19 | 29.27270 | 91.57170 | 25861 ft | 385 kts | 97° |
| 2026-05-09 07:19 | 29.27003 | 91.60234 | 26370 ft | 388 kts | 97° |
| 2026-05-09 07:19 | 29.26733 | 91.63324 | 26876 ft | 392 kts | 97° |
| 2026-05-09 07:20 | 29.26463 | 91.66444 | 27383 ft | 395 kts | 96° |
| 2026-05-09 07:20 | 29.26191 | 91.69594 | 27877 ft | 399 kts | 96° |
| 2026-05-09 07:20 | 29.25914 | 91.72765 | 28367 ft | 403 kts | 97° |
| 2026-05-09 07:20 | 29.25635 | 91.75967 | 28856 ft | 406 kts | 96° |
| 2026-05-09 07:21 | 29.25531 | 91.79230 | 29118 ft | 417 kts | 86° |
| 2026-05-09 07:21 | 29.25970 | 91.82555 | 29264 ft | 429 kts | 76° |
| 2026-05-09 07:21 | 29.26943 | 91.85827 | 29394 ft | 439 kts | 65° |
| 2026-05-09 07:21 | 29.28430 | 91.88925 | 29537 ft | 449 kts | 55° |
| 2026-05-09 07:22 | 29.30418 | 91.91722 | 29671 ft | 458 kts | 44° |
| 2026-05-09 07:22 | 29.32873 | 91.94080 | 29814 ft | 465 kts | 32° |
| 2026-05-09 07:22 | 29.35627 | 91.96085 | 30076 ft | 471 kts | 30° |
| 2026-05-09 07:22 | 29.38415 | 91.98081 | 30350 ft | 475 kts | 30° |
| 2026-05-09 07:23 | 29.41230 | 92.00088 | 30630 ft | 478 kts | 30° |
| 2026-05-09 07:23 | 29.44066 | 92.02109 | 30903 ft | 482 kts | 30° |
| 2026-05-09 07:23 | 29.46921 | 92.04147 | 31215 ft | 485 kts | 30° |
| 2026-05-09 07:23 | 29.49794 | 92.06205 | 31556 ft | 487 kts | 30° |
| 2026-05-09 07:24 | 29.52667 | 92.08272 | 31943 ft | 488 kts | 30° |
| 2026-05-09 07:24 | 29.55535 | 92.10339 | 32443 ft | 485 kts | 30° |
| 2026-05-09 07:24 | 29.58392 | 92.12398 | 32955 ft | 484 kts | 30° |
| 2026-05-09 07:24 | 29.61246 | 92.14452 | 33366 ft | 484 kts | 30° |
| 2026-05-09 07:25 | 29.64104 | 92.16510 | 33758 ft | 485 kts | 30° |
| 2026-05-09 07:25 | 29.66967 | 92.18573 | 34104 ft | 486 kts | 30° |
| 2026-05-09 07:25 | 29.69832 | 92.20637 | 34451 ft | 487 kts | 30° |
| 2026-05-09 07:25 | 29.72708 | 92.22712 | 34724 ft | 489 kts | 29° |
| 2026-05-09 07:26 | 29.75595 | 92.24796 | 34996 ft | 491 kts | 29° |
| 2026-05-09 07:26 | 29.78499 | 92.26892 | 35149 ft | 494 kts | 29° |
| 2026-05-09 07:26 | 29.84304 | 92.31091 | 35213 ft | 490 kts | 29° |
| 2026-05-09 07:27 | 29.90054 | 92.35264 | 35219 ft | 488 kts | 29° |
| 2026-05-09 07:27 | 29.95800 | 92.39426 | 35232 ft | 488 kts | 29° |
| 2026-05-09 07:28 | 30.01002 | 92.44463 | 35230 ft | 493 kts | 48° |
| 2026-05-09 07:28 | 30.04567 | 92.51214 | 35251 ft | 495 kts | 69° |
| 2026-05-09 07:29 | 30.06874 | 92.58701 | 35245 ft | 495 kts | 70° |
| 2026-05-09 07:29 | 30.09227 | 92.66165 | 35248 ft | 495 kts | 70° |
| 2026-05-09 07:30 | 30.11609 | 92.73616 | 35257 ft | 494 kts | 70° |
| 2026-05-09 07:30 | 30.13974 | 92.81052 | 35252 ft | 493 kts | 70° |
| 2026-05-09 07:31 | 30.16310 | 92.88482 | 35259 ft | 491 kts | 71° |
| 2026-05-09 07:31 | 30.18635 | 92.95897 | 35248 ft | 491 kts | 71° |
| 2026-05-09 07:32 | 30.20938 | 93.03267 | 35236 ft | 490 kts | 71° |
| 2026-05-09 07:32 | 30.23259 | 93.10684 | 35199 ft | 491 kts | 70° |
| 2026-05-09 07:33 | 30.26761 | 93.21883 | 35225 ft | 495 kts | 70° |
| 2026-05-09 07:34 | 30.29100 | 93.29391 | 35232 ft | 497 kts | 71° |
| 2026-05-09 07:34 | 30.31435 | 93.36916 | 35240 ft | 497 kts | 71° |
| 2026-05-09 07:35 | 30.33767 | 93.44456 | 35239 ft | 497 kts | 71° |
| 2026-05-09 07:35 | 30.36102 | 93.51993 | 35298 ft | 497 kts | 70° |
| 2026-05-09 07:36 | 30.38745 | 93.59371 | 35307 ft | 496 kts | 59° |
| 2026-05-09 07:36 | 30.42852 | 93.65718 | 35303 ft | 492 kts | 47° |
| 2026-05-09 07:37 | 30.47332 | 93.71706 | 35295 ft | 491 kts | 47° |
| 2026-05-09 07:37 | 30.51801 | 93.77687 | 35299 ft | 491 kts | 47° |
| 2026-05-09 07:38 | 30.56270 | 93.83682 | 35274 ft | 491 kts | 47° |
| 2026-05-09 07:38 | 30.60741 | 93.89703 | 35280 ft | 494 kts | 47° |
| 2026-05-09 07:39 | 30.65220 | 93.95745 | 35302 ft | 492 kts | 48° |
| 2026-05-09 07:39 | 30.69653 | 94.01724 | 35326 ft | 491 kts | 47° |
| 2026-05-09 07:40 | 30.74129 | 94.07768 | 35322 ft | 489 kts | 48° |
| 2026-05-09 07:40 | 30.78562 | 94.13763 | 35305 ft | 488 kts | 48° |
| 2026-05-09 07:41 | 30.82981 | 94.19753 | 35295 ft | 487 kts | 48° |
| 2026-05-09 07:41 | 30.87389 | 94.25749 | 35275 ft | 488 kts | 47° |
| 2026-05-09 07:42 | 30.91776 | 94.31715 | 35264 ft | 488 kts | 48° |
| 2026-05-09 07:42 | 30.96181 | 94.37710 | 35275 ft | 487 kts | 48° |
| 2026-05-09 07:43 | 31.00608 | 94.43746 | 35258 ft | 486 kts | 48° |
| 2026-05-09 07:43 | 31.04997 | 94.49733 | 35266 ft | 485 kts | 48° |
| 2026-05-09 07:44 | 31.09379 | 94.55724 | 35258 ft | 485 kts | 48° |
| 2026-05-09 07:44 | 31.13718 | 94.61674 | 35235 ft | 485 kts | 48° |
| 2026-05-09 07:45 | 31.17379 | 94.66698 | 35245 ft | 485 kts | 48° |
| 2026-05-09 07:45 | 31.21747 | 94.72699 | 35239 ft | 485 kts | 48° |
| 2026-05-09 07:46 | 31.26111 | 94.78699 | 35238 ft | 485 kts | 48° |
| 2026-05-09 07:46 | 31.31182 | 94.85680 | 35239 ft | 484 kts | 48° |
| 2026-05-09 07:47 | 31.34825 | 94.90724 | 35242 ft | 484 kts | 49° |
| 2026-05-09 07:47 | 31.39177 | 94.96750 | 35225 ft | 485 kts | 48° |
| 2026-05-09 07:48 | 31.43545 | 95.02783 | 35260 ft | 486 kts | 48° |
| 2026-05-09 07:48 | 31.47915 | 95.08838 | 35266 ft | 487 kts | 48° |
| 2026-05-09 07:49 | 31.52275 | 95.14905 | 35264 ft | 486 kts | 49° |
| 2026-05-09 07:49 | 31.56627 | 95.20969 | 35265 ft | 486 kts | 49° |
| 2026-05-09 07:50 | 31.60984 | 95.27030 | 35268 ft | 486 kts | 48° |
| 2026-05-09 07:50 | 31.65337 | 95.33092 | 35274 ft | 485 kts | 49° |
| 2026-05-09 07:51 | 31.69686 | 95.39175 | 35273 ft | 487 kts | 49° |
| 2026-05-09 07:51 | 31.74037 | 95.45273 | 35282 ft | 487 kts | 49° |
| 2026-05-09 07:52 | 31.78388 | 95.51385 | 35274 ft | 488 kts | 49° |
| 2026-05-09 07:52 | 31.82745 | 95.57496 | 35010 ft | 486 kts | 49° |
| 2026-05-09 07:52 | 31.84900 | 95.60531 | 34790 ft | 482 kts | 49° |
| 2026-05-09 07:53 | 31.87036 | 95.63544 | 34545 ft | 477 kts | 49° |
| 2026-05-09 07:53 | 31.89154 | 95.66531 | 34316 ft | 473 kts | 49° |
| 2026-05-09 07:53 | 31.91253 | 95.69493 | 34074 ft | 469 kts | 49° |
| 2026-05-09 07:53 | 31.93338 | 95.72433 | 33756 ft | 465 kts | 50° |
| 2026-05-09 07:54 | 31.95404 | 95.75347 | 33198 ft | 462 kts | 49° |
| 2026-05-09 07:54 | 31.97458 | 95.78249 | 32608 ft | 460 kts | 49° |
| 2026-05-09 07:54 | 31.99503 | 95.81144 | 32026 ft | 459 kts | 49° |
| 2026-05-09 07:54 | 32.01542 | 95.84027 | 31460 ft | 457 kts | 49° |
| 2026-05-09 07:55 | 32.03573 | 95.86903 | 30906 ft | 456 kts | 49° |
| 2026-05-09 07:55 | 32.05596 | 95.89776 | 30353 ft | 454 kts | 50° |
| 2026-05-09 07:55 | 32.07605 | 95.92634 | 29747 ft | 452 kts | 50° |
| 2026-05-09 07:55 | 32.09578 | 95.95439 | 29209 ft | 447 kts | 50° |
| 2026-05-09 07:56 | 32.11559 | 95.98256 | 28696 ft | 434 kts | 50° |
| 2026-05-09 07:56 | 32.13461 | 96.00958 | 28193 ft | 423 kts | 50° |
| 2026-05-09 07:56 | 32.15315 | 96.03595 | 27729 ft | 413 kts | 50° |
| 2026-05-09 07:56 | 32.17147 | 96.06205 | 27262 ft | 412 kts | 50° |
| 2026-05-09 07:57 | 32.18974 | 96.08810 | 26810 ft | 412 kts | 50° |
| 2026-05-09 07:57 | 32.20798 | 96.11410 | 26354 ft | 411 kts | 50° |
| 2026-05-09 07:57 | 32.22611 | 96.13994 | 26109 ft | 404 kts | 50° |
| 2026-05-09 07:57 | 32.24179 | 96.16716 | 25935 ft | 402 kts | 64° |
| 2026-05-09 07:58 | 32.25066 | 96.19827 | 25938 ft | 400 kts | 81° |
| 2026-05-09 07:58 | 32.25179 | 96.23092 | 25945 ft | 398 kts | 98° |
| 2026-05-09 07:58 | 32.24475 | 96.26233 | 25936 ft | 395 kts | 116° |
| 2026-05-09 07:58 | 32.23044 | 96.28942 | 25933 ft | 387 kts | 134° |
| 2026-05-09 07:59 | 32.21034 | 96.31035 | 25937 ft | 385 kts | 150° |
| 2026-05-09 07:59 | 32.18638 | 96.32363 | 25930 ft | 382 kts | 166° |
| 2026-05-09 07:59 | 32.16032 | 96.32854 | 25936 ft | 379 kts | 181° |
| 2026-05-09 07:59 | 32.13436 | 96.32484 | 25928 ft | 376 kts | 197° |
| 2026-05-09 08:00 | 32.11042 | 96.31289 | 25930 ft | 374 kts | 212° |
| 2026-05-09 08:00 | 32.09006 | 96.29395 | 25933 ft | 373 kts | 224° |
| 2026-05-09 08:00 | 32.07148 | 96.27251 | 25934 ft | 374 kts | 225° |
| 2026-05-09 08:00 | 32.05314 | 96.25135 | 25933 ft | 374 kts | 225° |
| 2026-05-09 08:01 | 32.03433 | 96.22958 | 25945 ft | 374 kts | 225° |
| 2026-05-09 08:01 | 32.01741 | 96.20689 | 25934 ft | 374 kts | 237° |
| 2026-05-09 08:01 | 32.00656 | 96.17877 | 25933 ft | 374 kts | 255° |
| 2026-05-09 08:01 | 32.00370 | 96.14869 | 25761 ft | 377 kts | 272° |
| 2026-05-09 08:02 | 32.00948 | 96.11824 | 25523 ft | 379 kts | 291° |
| 2026-05-09 08:02 | 32.02329 | 96.09181 | 25297 ft | 382 kts | 310° |
| 2026-05-09 08:02 | 32.04374 | 96.07182 | 25076 ft | 386 kts | 328° |
| 2026-05-09 08:02 | 32.06891 | 96.06061 | 24930 ft | 390 kts | 348° |
| 2026-05-09 08:03 | 32.09614 | 96.05962 | 24874 ft | 396 kts | 7° |
| 2026-05-09 08:03 | 32.12192 | 96.06917 | 24647 ft | 395 kts | 28° |
| 2026-05-09 08:03 | 32.14597 | 96.08574 | 24419 ft | 395 kts | 31° |
| 2026-05-09 08:03 | 32.16917 | 96.10213 | 24189 ft | 392 kts | 31° |
| 2026-05-09 08:04 | 32.19281 | 96.11882 | 23965 ft | 389 kts | 31° |
| 2026-05-09 08:04 | 32.21555 | 96.13525 | 23744 ft | 388 kts | 34° |
| 2026-05-09 08:04 | 32.23636 | 96.15534 | 23484 ft | 386 kts | 45° |
| 2026-05-09 08:04 | 32.25415 | 96.17893 | 23224 ft | 384 kts | 50° |
| 2026-05-09 08:05 | 32.27138 | 96.20294 | 22967 ft | 382 kts | 50° |
| 2026-05-09 08:05 | 32.28851 | 96.22669 | 22750 ft | 375 kts | 50° |
| 2026-05-09 08:05 | 32.30521 | 96.24980 | 22610 ft | 365 kts | 49° |
| 2026-05-09 08:05 | 32.32154 | 96.27240 | 22478 ft | 359 kts | 49° |
| 2026-05-09 08:06 | 32.33773 | 96.29481 | 22351 ft | 358 kts | 49° |
| 2026-05-09 08:06 | 32.35383 | 96.31715 | 22228 ft | 356 kts | 49° |
| 2026-05-09 08:06 | 32.36989 | 96.33942 | 22101 ft | 355 kts | 49° |
| 2026-05-09 08:06 | 32.38588 | 96.36159 | 21968 ft | 354 kts | 49° |
| 2026-05-09 08:07 | 32.40188 | 96.38385 | 21564 ft | 355 kts | 49° |
| 2026-05-09 08:07 | 32.41786 | 96.40616 | 21175 ft | 353 kts | 49° |
| 2026-05-09 08:07 | 32.43360 | 96.42815 | 20973 ft | 347 kts | 49° |
| 2026-05-09 08:07 | 32.44898 | 96.44998 | 20925 ft | 345 kts | 52° |
| 2026-05-09 08:08 | 32.46191 | 96.47381 | 20861 ft | 344 kts | 62° |
| 2026-05-09 08:08 | 32.47132 | 96.49976 | 20775 ft | 343 kts | 72° |
| 2026-05-09 08:08 | 32.47704 | 96.52717 | 20714 ft | 343 kts | 81° |
| 2026-05-09 08:08 | 32.47943 | 96.55525 | 20630 ft | 343 kts | 85° |
| 2026-05-09 08:09 | 32.48138 | 96.58331 | 20562 ft | 342 kts | 85° |
| 2026-05-09 08:09 | 32.48342 | 96.61134 | 20489 ft | 341 kts | 85° |
| 2026-05-09 08:09 | 32.48547 | 96.63930 | 20417 ft | 341 kts | 85° |
| 2026-05-09 08:09 | 32.48751 | 96.66725 | 20269 ft | 340 kts | 85° |
| 2026-05-09 08:10 | 32.48951 | 96.69504 | 20103 ft | 338 kts | 85° |
| 2026-05-09 08:10 | 32.49148 | 96.72274 | 19938 ft | 337 kts | 85° |
| 2026-05-09 08:10 | 32.49343 | 96.75031 | 19774 ft | 335 kts | 85° |
| 2026-05-09 08:10 | 32.49534 | 96.77775 | 19610 ft | 334 kts | 85° |
| 2026-05-09 08:11 | 32.49724 | 96.80509 | 19446 ft | 332 kts | 85° |
| 2026-05-09 08:11 | 32.49912 | 96.83228 | 19283 ft | 331 kts | 85° |
| 2026-05-09 08:11 | 32.50099 | 96.85939 | 19123 ft | 329 kts | 84° |
| 2026-05-09 08:11 | 32.50283 | 96.88636 | 18990 ft | 328 kts | 84° |
| 2026-05-09 08:12 | 32.50656 | 96.94011 | 18988 ft | 327 kts | 84° |
| 2026-05-09 08:12 | 32.50844 | 96.96697 | 18988 ft | 327 kts | 84° |
| 2026-05-09 08:12 | 32.51030 | 96.99387 | 18988 ft | 327 kts | 84° |
| 2026-05-09 08:13 | 32.51215 | 97.02074 | 18989 ft | 328 kts | 84° |
| 2026-05-09 08:13 | 32.51395 | 97.04768 | 18990 ft | 327 kts | 84° |
| 2026-05-09 08:13 | 32.51575 | 97.07453 | 18987 ft | 327 kts | 84° |
| 2026-05-09 08:13 | 32.51757 | 97.10145 | 18989 ft | 328 kts | 84° |
| 2026-05-09 08:14 | 32.51941 | 97.12833 | 18989 ft | 327 kts | 84° |
| 2026-05-09 08:14 | 32.52124 | 97.15521 | 18986 ft | 327 kts | 84° |
| 2026-05-09 08:14 | 32.52304 | 97.18209 | 18994 ft | 328 kts | 84° |
| 2026-05-09 08:14 | 32.52481 | 97.20887 | 18992 ft | 321 kts | 84° |
| 2026-05-09 08:15 | 32.52651 | 97.23475 | 18992 ft | 309 kts | 84° |
| 2026-05-09 08:15 | 32.52932 | 97.25942 | 18993 ft | 296 kts | 77° |
| 2026-05-09 08:15 | 32.53489 | 97.28241 | 18993 ft | 284 kts | 69° |
| 2026-05-09 08:15 | 32.54255 | 97.30345 | 18987 ft | 272 kts | 62° |
| 2026-05-09 08:16 | 32.55200 | 97.32262 | 18987 ft | 268 kts | 55° |
| 2026-05-09 08:16 | 32.56324 | 97.34014 | 18987 ft | 267 kts | 48° |
| 2026-05-09 08:16 | 32.57619 | 97.35584 | 18986 ft | 266 kts | 41° |
| 2026-05-09 08:16 | 32.59069 | 97.36964 | 18747 ft | 272 kts | 34° |
| 2026-05-09 08:17 | 32.60715 | 97.38127 | 18376 ft | 277 kts | 26° |
| 2026-05-09 08:17 | 32.62468 | 97.39031 | 18170 ft | 271 kts | 20° |
| 2026-05-09 08:17 | 32.64231 | 97.39658 | 18050 ft | 257 kts | 13° |
| 2026-05-09 08:17 | 32.65934 | 97.40017 | 17945 ft | 241 kts | 7° |
| 2026-05-09 08:18 | 32.67547 | 97.40102 | 17834 ft | 225 kts | 359° |
| 2026-05-09 08:18 | 32.69067 | 97.39911 | 17723 ft | 214 kts | 351° |
| 2026-05-09 08:18 | 32.70489 | 97.39477 | 17619 ft | 209 kts | 342° |
| 2026-05-09 08:18 | 32.71833 | 97.38820 | 17524 ft | 209 kts | 335° |
| 2026-05-09 08:19 | 32.73090 | 97.37956 | 17436 ft | 209 kts | 327° |
| 2026-05-09 08:19 | 32.74240 | 97.36901 | 17331 ft | 209 kts | 320° |
| 2026-05-09 08:19 | 32.75267 | 97.35673 | 17227 ft | 210 kts | 313° |
| 2026-05-09 08:19 | 32.76147 | 97.34289 | 17125 ft | 210 kts | 305° |
| 2026-05-09 08:20 | 32.76862 | 97.32772 | 17016 ft | 211 kts | 297° |
| 2026-05-09 08:20 | 32.77435 | 97.31188 | 16831 ft | 213 kts | 295° |
| 2026-05-09 08:20 | 32.78006 | 97.29549 | 16540 ft | 215 kts | 294° |
| 2026-05-09 08:20 | 32.78547 | 97.27903 | 16262 ft | 211 kts | 292° |
| 2026-05-09 08:21 | 32.79043 | 97.26288 | 15999 ft | 206 kts | 291° |
| 2026-05-09 08:21 | 32.79506 | 97.24700 | 15750 ft | 201 kts | 290° |
| 2026-05-09 08:21 | 32.79934 | 97.23151 | 15505 ft | 194 kts | 290° |
| 2026-05-09 08:21 | 32.80337 | 97.21652 | 15264 ft | 187 kts | 290° |
| 2026-05-09 08:22 | 32.80727 | 97.20207 | 15032 ft | 181 kts | 290° |
| 2026-05-09 08:22 | 32.81104 | 97.18804 | 14816 ft | 176 kts | 289° |
| 2026-05-09 08:22 | 32.81475 | 97.17427 | 14633 ft | 174 kts | 289° |
| 2026-05-09 08:22 | 32.81842 | 97.16064 | 14426 ft | 173 kts | 289° |
| 2026-05-09 08:23 | 32.82143 | 97.14684 | 14210 ft | 173 kts | 280° |
| 2026-05-09 08:23 | 32.82254 | 97.13262 | 13958 ft | 172 kts | 272° |
| 2026-05-09 08:23 | 32.82286 | 97.11844 | 13702 ft | 172 kts | 273° |
| 2026-05-09 08:23 | 32.82359 | 97.10436 | 13479 ft | 170 kts | 280° |
| 2026-05-09 08:24 | 32.82587 | 97.09064 | 13257 ft | 169 kts | 284° |
| 2026-05-09 08:24 | 32.82847 | 97.07705 | 13031 ft | 168 kts | 285° |
| 2026-05-09 08:24 | 32.83114 | 97.06356 | 12816 ft | 167 kts | 284° |
| 2026-05-09 08:24 | 32.83382 | 97.05012 | 12642 ft | 165 kts | 285° |
| 2026-05-09 08:25 | 32.83620 | 97.03785 | 12669 ft | 132 kts | 283° |
| 2026-05-09 08:25 | 32.83787 | 97.02917 | 12680 ft | 83 kts | 283° |
| 2026-05-09 08:25 | 32.83888 | 97.02393 | 12689 ft | 50 kts | 283° |
| 2026-05-09 08:25 | 32.83946 | 97.02096 | 12695 ft | 28 kts | 283° |
| 2026-05-09 08:26 | 32.83984 | 97.01900 | 12698 ft | 20 kts | 283° |
| 2026-05-09 08:26 | 32.84009 | 97.01796 | 12700 ft | 10 kts | 306° |
| 2026-05-09 08:26 | 32.84043 | 97.01735 | 12702 ft | 7 kts | 262° |
| 2026-05-09 08:26 | 32.84012 | 97.01754 | 12701 ft | 8 kts | 110° |
| 2026-05-09 08:27 | 32.83992 | 97.01856 | 12699 ft | 17 kts | 102° |
| 2026-05-09 08:27 | 32.83960 | 97.02024 | 12696 ft | 24 kts | 103° |
| 2026-05-09 08:27 | 32.83917 | 97.02246 | 12691 ft | 29 kts | 103° |
| 2026-05-09 08:27 | 32.83870 | 97.02484 | 12688 ft | 30 kts | 103° |
| 2026-05-09 08:28 | 32.83822 | 97.02736 | 12683 ft | 32 kts | 103° |
| 2026-05-09 08:28 | 32.83770 | 97.02999 | 12680 ft | 34 kts | 103° |
| 2026-05-09 08:28 | 32.83719 | 97.03258 | 12673 ft | 31 kts | 103° |
| 2026-05-09 08:28 | 32.83680 | 97.03463 | 12670 ft | 15 kts | 103° |
| 2026-05-09 08:29 | 32.83663 | 97.03545 | 12671 ft | 14 kts | 103° |
| 2026-05-09 08:29 | 32.83646 | 97.03639 | 12671 ft | 10 kts | 92° |
| 2026-05-09 08:29 | 32.83704 | 97.03682 | 12670 ft | 11 kts | 11° |
| 2026-05-09 08:29 | 32.83771 | 97.03701 | 12670 ft | 10 kts | 13° |
| 2026-05-09 08:30 | 32.83836 | 97.03720 | 12671 ft | 9 kts | 14° |
| 2026-05-09 08:30 | 32.83856 | 97.03784 | 12668 ft | 10 kts | 104° |
| 2026-05-09 08:30 | 32.83842 | 97.03853 | 12667 ft | 8 kts | 103° |
| 2026-05-09 08:30 | 32.83827 | 97.03926 | 12666 ft | 10 kts | 103° |
| 2026-05-09 08:31 | 32.83817 | 97.03983 | 12665 ft | 8 kts | 102° |
| 2026-05-09 08:31 | 32.83807 | 97.04038 | 12666 ft | 6 kts | 101° |
| 2026-05-09 08:31 | 32.83827 | 97.04053 | 12663 ft | 3 kts | 27° |
| 2026-05-09 08:31 | 32.83846 | 97.04059 | 12666 ft | 1 kts | 12° |